createdAt,value
2022-08-11T00:00:17.864Z,66.10
2022-08-11T00:02:52.860Z,65.80
2022-08-11T00:05:23.958Z,66.20
2022-08-11T00:07:57.510Z,66.10
2022-08-11T00:10:30.089Z,65.80
2022-08-11T00:13:04.936Z,65.90
2022-08-11T00:15:43.713Z,65.70
2022-08-11T00:18:15.579Z,65.80
2022-08-11T00:20:47.227Z,65.70
2022-08-11T00:23:20.188Z,65.30
2022-08-11T00:25:54.971Z,65.00
2022-08-11T00:28:34.670Z,65.00
2022-08-11T00:31:12.669Z,64.90
2022-08-11T00:33:45.414Z,64.00
2022-08-11T00:36:23.385Z,63.80
2022-08-11T00:39:05.523Z,64.50
2022-08-11T00:42:06.964Z,65.30
2022-08-11T00:45:25.136Z,66.20
2022-08-11T00:48:44.316Z,67.10
2022-08-11T00:52:02.174Z,67.10
2022-08-11T00:54:58.733Z,67.60
2022-08-11T00:58:07.146Z,68.10
2022-08-11T01:00:59.449Z,69.10
2022-08-11T01:03:53.479Z,70.00
2022-08-11T01:07:10.567Z,70.10
2022-08-11T01:10:17.896Z,71.00
2022-08-11T01:13:22.649Z,71.20
2022-08-11T01:16:05.354Z,71.30
2022-08-11T01:19:16.280Z,72.10
2022-08-11T01:22:29.490Z,71.80
2022-08-11T01:25:31.307Z,72.40
2022-08-11T01:29:06.019Z,72.50
2022-08-11T01:32:04.436Z,72.40
2022-08-11T01:35:06.838Z,73.40
2022-08-11T01:38:15.050Z,74.50
2022-08-11T01:41:49.167Z,75.40
2022-08-11T01:44:41.679Z,76.40
2022-08-11T01:47:54.185Z,76.00
2022-08-11T01:50:40.638Z,76.60
2022-08-11T01:53:46.283Z,77.30
2022-08-11T01:57:06.735Z,76.90
2022-08-11T01:59:49.365Z,77.20
2022-08-11T02:02:54.078Z,77.80
2022-08-11T02:05:48.181Z,79.10
2022-08-11T02:08:49.584Z,78.90
2022-08-11T02:11:35.787Z,79.30
2022-08-11T02:14:34.830Z,78.20
2022-08-11T02:17:49.312Z,78.10
2022-08-11T02:21:02.625Z,77.60
2022-08-11T02:24:04.797Z,77.60
2022-08-11T02:26:47.140Z,77.90
2022-08-11T02:29:45.897Z,78.20
2022-08-11T02:32:48.671Z,77.50
2022-08-11T02:35:45.820Z,77.70
2022-08-11T02:38:37.693Z,78.40
2022-08-11T02:41:54.628Z,79.00
2022-08-11T02:44:55.907Z,79.60
2022-08-11T02:48:13.708Z,80.30
2022-08-11T02:51:22.355Z,80.20
2022-08-11T02:54:08.568Z,80.90
2022-08-11T02:56:47.352Z,81.20
2022-08-11T02:59:50.536Z,81.60
2022-08-11T03:02:31.739Z,82.00
2022-08-11T03:05:17.056Z,82.00
2022-08-11T03:08:31.630Z,82.60
2022-08-11T03:11:45.167Z,83.50
2022-08-11T03:15:00.596Z,83.20
2022-08-11T03:17:41.219Z,83.20
2022-08-11T03:20:38.142Z,84.00
2022-08-11T03:23:35.647Z,84.00
2022-08-11T03:26:32.713Z,84.80
2022-08-11T03:29:27.364Z,85.60
2022-08-11T03:32:30.898Z,85.80
2022-08-11T03:35:04.219Z,86.30
2022-08-11T03:37:56.780Z,86.10
2022-08-11T03:40:57.672Z,85.80
2022-08-11T03:43:58.355Z,85.80
2022-08-11T03:47:05.364Z,86.10
2022-08-11T03:50:13.549Z,86.30
2022-08-11T03:54:08.873Z,87.30
2022-08-11T03:57:15.763Z,87.90
2022-08-11T04:00:14.871Z,88.10
2022-08-11T04:03:20.680Z,87.40
2022-08-11T04:06:32.138Z,87.30
2022-08-11T04:09:40.046Z,87.20
2022-08-11T04:12:35.639Z,86.60
2022-08-11T04:16:12.469Z,86.70
2022-08-11T04:19:38.399Z,87.50
2022-08-11T04:22:21.650Z,87.70
2022-08-11T04:25:29.489Z,87.70
2022-08-11T04:28:50.852Z,88.10
2022-08-11T04:31:49.607Z,88.20
2022-08-11T04:34:36.562Z,88.90
2022-08-11T04:37:29.824Z,89.20
2022-08-11T04:40:29.178Z,89.10
2022-08-11T04:43:37.516Z,89.30
2022-08-11T04:46:56.503Z,89.30
2022-08-11T04:50:25.204Z,89.90
2022-08-11T04:53:53.508Z,90.00
2022-08-11T04:56:44.813Z,90.10
2022-08-11T05:00:06.224Z,90.10
2022-08-11T05:03:04.528Z,90.40
2022-08-11T05:06:06.656Z,90.30
2022-08-11T05:09:29.488Z,90.40
2022-08-11T05:12:12.159Z,90.40
2022-08-11T05:15:10.590Z,90.50
2022-08-11T05:18:05.357Z,90.20
2022-08-11T05:21:14.724Z,90.00
2022-08-11T05:24:31.434Z,90.20
2022-08-11T05:27:24.662Z,89.80
2022-08-11T05:30:26.491Z,88.60
2022-08-11T05:33:43.094Z,88.20
2022-08-11T05:36:46.083Z,88.40
2022-08-11T05:40:12.359Z,88.20
2022-08-11T05:43:11.307Z,87.80
2022-08-11T05:46:05.399Z,87.40
2022-08-11T05:48:56.672Z,86.70
2022-08-11T05:51:57.086Z,86.70
2022-08-11T05:54:48.656Z,85.70
2022-08-11T05:57:39.685Z,85.90
2022-08-11T06:00:15.090Z,85.50
2022-08-11T06:02:55.371Z,85.80
2022-08-11T06:05:38.389Z,84.60
2022-08-11T06:08:15.234Z,84.00
2022-08-11T06:10:47.106Z,83.10
2022-08-11T06:13:18.944Z,82.90
2022-08-11T06:15:55.923Z,82.50
2022-08-11T06:18:28.196Z,82.50
2022-08-11T06:21:00.625Z,81.60
2022-08-11T06:23:33.677Z,81.90
2022-08-11T06:26:15.039Z,81.20
2022-08-11T06:28:47.404Z,81.50
2022-08-11T06:31:25.210Z,81.90
2022-08-11T06:34:12.393Z,81.80
2022-08-11T06:37:19.302Z,81.60
2022-08-11T06:40:10.736Z,81.10
2022-08-11T06:43:06.502Z,80.10
2022-08-11T06:46:03.355Z,79.70
2022-08-11T06:48:35.338Z,79.80
2022-08-11T06:51:12.973Z,79.30
2022-08-11T06:54:03.626Z,79.10
2022-08-11T06:57:29.417Z,78.50
2022-08-11T07:00:07.345Z,78.30
2022-08-11T07:02:49.600Z,77.60
2022-08-11T07:05:46.732Z,77.90
2022-08-11T07:08:52.726Z,77.40
2022-08-11T07:12:35.543Z,76.60
2022-08-11T07:16:12.619Z,76.40
2022-08-11T07:18:48.425Z,75.90
2022-08-11T07:22:02.845Z,75.70
2022-08-11T07:25:27.310Z,75.50
2022-08-11T07:28:30.425Z,74.90
2022-08-11T07:31:08.360Z,75.10
2022-08-11T07:34:07.070Z,74.90
2022-08-11T07:36:51.277Z,74.20
2022-08-11T07:39:29.390Z,73.70
2022-08-11T07:42:07.667Z,73.50
2022-08-11T07:45:01.028Z,74.40
2022-08-11T07:47:51.893Z,72.70
2022-08-11T07:50:42.308Z,73.00
2022-08-11T07:53:14.728Z,72.80
2022-08-11T07:55:53.422Z,72.80
2022-08-11T07:58:53.345Z,72.40
2022-08-11T08:01:45.606Z,72.70
2022-08-11T08:04:37.567Z,71.70
2022-08-11T08:07:27.853Z,72.60
2022-08-11T08:10:20.087Z,70.80
2022-08-11T08:13:10.132Z,70.50
2022-08-11T08:16:00.453Z,69.90
2022-08-11T08:18:35.941Z,69.10
2022-08-11T08:21:13.127Z,69.40
2022-08-11T08:23:53.824Z,68.60
2022-08-11T08:26:51.448Z,68.70
2022-08-11T08:29:41.893Z,68.10
2022-08-11T08:32:13.443Z,67.90
2022-08-11T08:34:45.835Z,67.90
2022-08-11T08:37:45.301Z,67.30
2022-08-11T08:40:13.824Z,67.40
2022-08-11T08:42:51.725Z,66.90
2022-08-11T08:45:24.483Z,66.40
2022-08-11T08:48:01.772Z,66.40
2022-08-11T08:50:56.246Z,65.90
2022-08-11T08:53:33.281Z,65.20
2022-08-11T08:56:06.091Z,64.90
2022-08-11T08:58:39.013Z,64.60
2022-08-11T09:01:11.474Z,64.30
2022-08-11T09:04:05.267Z,63.80
2022-08-11T09:06:39.871Z,63.30
2022-08-11T09:09:12.346Z,62.90
2022-08-11T09:11:51.146Z,63.20
2022-08-11T09:14:47.091Z,62.50
2022-08-11T09:17:23.654Z,61.80
2022-08-11T09:20:26.573Z,61.20
2022-08-11T09:26:30.309Z,61.40
2022-08-11T09:29:04.620Z,60.50
2022-08-11T09:31:40.090Z,60.10
2022-08-11T09:34:14.125Z,59.40
2022-08-11T09:37:04.547Z,60.10
2022-08-11T09:39:57.594Z,59.70
2022-08-11T09:42:49.094Z,60.30
2022-08-11T09:45:20.411Z,59.80
2022-08-11T09:47:51.667Z,59.00
2022-08-11T09:50:22.976Z,59.10
2022-08-11T09:53:34.675Z,58.70
2022-08-11T09:55:47.149Z,58.10
2022-08-11T09:58:41.807Z,57.70
2022-08-11T10:01:27.299Z,57.40
2022-08-11T10:04:15.403Z,57.20
2022-08-11T10:07:05.542Z,57.20
2022-08-11T10:09:50.906Z,56.50
2022-08-11T10:12:33.189Z,57.00
2022-08-11T10:15:28.631Z,57.30
2022-08-11T10:18:26.470Z,56.80
2022-08-11T10:21:07.297Z,56.90
2022-08-11T10:24:00.887Z,55.70
2022-08-11T10:26:53.641Z,55.50
2022-08-11T10:29:51.161Z,55.30
2022-08-11T10:32:57.619Z,55.70
2022-08-11T10:35:32.640Z,55.10
2022-08-11T10:38:08.622Z,55.90
2022-08-11T10:40:45.732Z,55.70
2022-08-11T10:43:18.804Z,56.20
2022-08-11T10:46:30.714Z,56.20
2022-08-11T10:49:02.481Z,55.00
2022-08-11T10:51:53.878Z,55.00
2022-08-11T10:54:47.316Z,54.60
2022-08-11T10:57:37.201Z,54.90
2022-08-11T11:00:15.135Z,54.80
2022-08-11T11:03:07.178Z,54.90
2022-08-11T11:06:12.919Z,54.90
2022-08-11T11:08:57.554Z,54.10
2022-08-11T11:12:07.035Z,54.00
2022-08-11T11:15:03.252Z,53.00
2022-08-11T11:18:01.833Z,52.60
2022-08-11T11:20:58.050Z,52.10
2022-08-11T11:24:14.868Z,51.20
2022-08-11T11:27:25.469Z,49.50
2022-08-11T11:30:10.245Z,47.70
2022-08-11T11:33:13.635Z,47.60
2022-08-11T11:36:32.882Z,47.50
2022-08-11T11:39:04.155Z,47.20
2022-08-11T11:41:36.567Z,46.10
2022-08-11T11:44:11.171Z,46.40
2022-08-11T11:46:49.448Z,46.70
2022-08-11T11:49:27.275Z,46.30
2022-08-11T11:52:01.832Z,47.10
2022-08-11T11:54:34.179Z,46.70
2022-08-11T11:57:24.399Z,46.20
2022-08-11T12:00:18.505Z,46.30
2022-08-11T12:02:50.591Z,46.50
2022-08-11T12:05:22.372Z,46.70
2022-08-11T12:08:14.712Z,46.40
2022-08-11T12:11:13.506Z,46.20
2022-08-11T12:13:53.037Z,46.10
2022-08-11T12:16:34.444Z,46.50
2022-08-11T12:19:21.542Z,46.40
2022-08-11T12:22:14.501Z,46.40
2022-08-11T12:25:04.925Z,46.10
2022-08-11T12:27:36.504Z,45.90
2022-08-11T12:30:11.172Z,45.10
2022-08-11T12:32:44.013Z,45.30
2022-08-11T12:35:16.275Z,45.10
2022-08-11T12:37:54.257Z,45.60
2022-08-11T12:41:15.685Z,45.90
2022-08-11T12:44:02.093Z,44.90
2022-08-11T12:46:37.948Z,45.10
2022-08-11T12:49:43.228Z,45.20
2022-08-11T12:52:24.923Z,44.60
2022-08-11T12:55:12.956Z,44.70
2022-08-11T12:58:06.957Z,44.10
2022-08-11T13:00:59.898Z,44.70
2022-08-11T13:03:52.577Z,44.60
2022-08-11T13:06:28.539Z,44.90
2022-08-11T13:09:01.537Z,45.20
2022-08-11T13:11:56.800Z,45.00
2022-08-11T13:14:28.710Z,43.50
2022-08-11T13:17:19.525Z,43.70
2022-08-11T13:19:51.951Z,42.80
2022-08-11T13:22:25.458Z,44.00
2022-08-11T13:24:58.135Z,43.80
2022-08-11T13:27:29.169Z,44.30
2022-08-11T13:30:19.536Z,44.80
2022-08-11T13:32:53.708Z,43.80
2022-08-11T13:35:25.252Z,43.80
2022-08-11T13:38:19.007Z,43.60
2022-08-11T13:40:55.649Z,43.60
2022-08-11T13:43:30.693Z,43.60
2022-08-11T13:46:20.200Z,43.50
2022-08-11T13:49:00.648Z,43.70
2022-08-11T13:51:35.870Z,42.90
2022-08-11T13:54:22.184Z,42.60
2022-08-11T13:56:57.387Z,42.70
2022-08-11T13:59:31.205Z,43.00
2022-08-11T14:02:21.825Z,42.80
2022-08-11T14:05:12.545Z,43.00
2022-08-11T14:07:59.653Z,43.60
2022-08-11T14:10:34.282Z,43.10
2022-08-11T14:13:42.312Z,43.10
2022-08-11T14:16:57.915Z,42.40
2022-08-11T14:19:30.980Z,42.60
2022-08-11T14:22:09.286Z,42.20
2022-08-11T14:24:43.844Z,42.40
2022-08-11T14:28:41.757Z,41.50
2022-08-11T14:30:27.866Z,42.90
2022-08-11T14:32:59.871Z,42.00
2022-08-11T14:35:30.974Z,41.80
2022-08-11T14:38:05.426Z,42.10
2022-08-11T14:40:55.618Z,42.00
2022-08-11T14:44:12.319Z,41.90
2022-08-11T14:46:57.139Z,42.00
2022-08-11T14:49:29.572Z,41.40
2022-08-11T14:52:01.650Z,42.10
2022-08-11T14:54:52.042Z,41.00
2022-08-11T14:57:56.289Z,41.90
2022-08-11T15:00:18.195Z,41.60
2022-08-11T15:03:08.569Z,41.80
2022-08-11T15:05:58.364Z,41.00
2022-08-11T15:08:52.680Z,41.10
2022-08-11T15:11:47.684Z,40.80
2022-08-11T15:14:39.903Z,41.50
2022-08-11T15:17:13.094Z,41.30
2022-08-11T15:20:05.361Z,41.20
2022-08-11T15:22:54.728Z,41.10
2022-08-11T15:25:26.846Z,41.50
2022-08-11T15:28:18.207Z,40.40
2022-08-11T15:31:13.715Z,40.80
2022-08-11T15:34:07.851Z,40.60
2022-08-11T15:36:59.391Z,40.90
2022-08-11T15:40:06.227Z,40.60
2022-08-11T15:43:08.420Z,40.30
2022-08-11T15:45:52.355Z,40.70
2022-08-11T15:48:32.094Z,40.80
2022-08-11T15:51:33.477Z,40.70
2022-08-11T15:54:11.515Z,41.30
2022-08-11T15:56:46.701Z,41.50
2022-08-11T15:59:41.995Z,41.50
2022-08-11T16:02:17.929Z,41.10
2022-08-11T16:04:49.747Z,41.00
2022-08-11T16:07:27.024Z,41.20
2022-08-11T16:10:18.764Z,41.40
2022-08-11T16:13:07.070Z,41.60
2022-08-11T16:16:03.584Z,41.70
2022-08-11T16:18:59.561Z,41.70
2022-08-11T16:21:36.580Z,41.70
2022-08-11T16:27:01.418Z,41.80
2022-08-11T16:27:13.560Z,41.40
2022-08-11T16:29:48.171Z,41.40
2022-08-11T16:32:25.805Z,42.10
2022-08-11T16:35:22.383Z,41.30
2022-08-11T16:38:14.167Z,41.30
2022-08-11T16:40:47.164Z,41.40
2022-08-11T16:43:40.731Z,41.40
2022-08-11T16:46:37.588Z,41.30
2022-08-11T16:49:18.517Z,41.10
2022-08-11T16:51:49.473Z,41.50
2022-08-11T16:54:20.827Z,41.40
2022-08-11T16:56:54.262Z,41.40
2022-08-11T16:59:36.647Z,41.60
2022-08-11T17:02:13.006Z,41.60
2022-08-11T17:05:28.683Z,41.20
2022-08-11T17:08:22.797Z,41.50
2022-08-11T17:11:20.768Z,41.50
2022-08-11T17:14:00.607Z,41.80
2022-08-11T17:16:41.809Z,42.00
2022-08-11T17:20:40.316Z,42.60
2022-08-11T17:22:45.074Z,41.70
2022-08-11T17:25:17.306Z,42.30
2022-08-11T17:27:50.881Z,42.30
2022-08-11T17:30:44.632Z,41.70
2022-08-11T17:33:35.158Z,41.60
2022-08-11T17:36:07.324Z,42.20
2022-08-11T17:38:40.038Z,42.10
2022-08-11T17:41:31.265Z,42.00
2022-08-11T17:44:22.649Z,42.20
2022-08-11T17:47:13.582Z,42.20
2022-08-11T17:49:45.234Z,42.40
2022-08-11T17:52:35.738Z,42.50
2022-08-11T17:55:51.572Z,43.30
2022-08-11T17:58:38.067Z,43.90
2022-08-11T18:01:11.514Z,43.50
2022-08-11T18:03:57.577Z,43.80
2022-08-11T18:06:34.843Z,44.40
2022-08-11T18:09:34.127Z,44.60
2022-08-11T18:12:26.046Z,45.30
2022-08-11T18:15:16.447Z,45.50
2022-08-11T18:18:06.382Z,45.90
2022-08-11T18:20:55.991Z,46.10
2022-08-11T18:23:47.260Z,46.30
2022-08-11T18:26:40.255Z,45.90
2022-08-11T18:29:31.065Z,46.40
2022-08-11T18:32:49.207Z,46.80
2022-08-11T18:35:41.136Z,46.70
2022-08-11T18:38:34.758Z,47.20
2022-08-11T18:41:27.260Z,46.90
2022-08-11T18:44:22.732Z,47.50
2022-08-11T18:47:14.261Z,48.30
2022-08-11T18:50:05.852Z,48.40
2022-08-11T18:52:56.636Z,48.50
2022-08-11T18:55:47.898Z,48.80
2022-08-11T18:58:46.361Z,49.40
2022-08-11T19:01:37.864Z,50.00
2022-08-11T19:04:30.024Z,50.30
2022-08-11T19:07:22.060Z,50.80
2022-08-11T19:10:14.574Z,50.80
2022-08-11T19:13:06.598Z,51.20
2022-08-11T19:15:57.699Z,51.70
2022-08-11T19:18:49.033Z,51.90
2022-08-11T19:21:40.000Z,53.10
2022-08-11T19:24:30.322Z,53.30
2022-08-11T19:27:21.691Z,53.40
2022-08-11T19:30:14.296Z,53.50
2022-08-11T19:33:04.289Z,53.70
2022-08-11T19:35:55.194Z,53.80
2022-08-11T19:38:45.165Z,53.70
2022-08-11T19:41:56.468Z,54.20
2022-08-11T19:44:47.799Z,54.90
2022-08-11T19:47:39.119Z,55.20
2022-08-11T19:50:29.010Z,55.20
2022-08-11T19:53:20.771Z,55.70
2022-08-11T19:56:11.898Z,55.80
2022-08-11T19:59:03.169Z,56.20
2022-08-11T20:02:01.215Z,56.30
2022-08-11T20:05:02.407Z,57.30
2022-08-11T20:07:52.786Z,56.70
2022-08-11T20:10:44.199Z,57.10
2022-08-11T20:13:35.815Z,56.80
2022-08-11T20:16:35.253Z,57.00
2022-08-11T20:19:56.495Z,57.40
2022-08-11T20:22:37.559Z,57.60
2022-08-11T20:25:28.507Z,58.30
2022-08-11T20:28:17.813Z,58.70
2022-08-11T20:31:08.284Z,58.50
2022-08-11T20:33:59.626Z,57.50
2022-08-11T20:36:54.115Z,57.60
2022-08-11T20:39:45.140Z,57.30
2022-08-11T20:42:37.127Z,57.80
2022-08-11T20:45:28.977Z,57.90
2022-08-11T20:48:21.067Z,57.70
2022-08-11T20:51:17.355Z,57.60
2022-08-11T20:54:07.975Z,57.60
2022-08-11T20:57:02.061Z,57.80
2022-08-11T21:03:04.749Z,57.90
2022-08-11T21:06:09.709Z,58.40
2022-08-11T21:09:01.850Z,58.00
2022-08-11T21:11:55.379Z,58.80
2022-08-11T21:14:45.179Z,58.50
2022-08-11T21:18:00.038Z,58.80
2022-08-11T21:20:51.628Z,59.30
2022-08-11T21:23:44.651Z,59.80
2022-08-11T21:26:41.235Z,59.50
2022-08-11T21:29:31.740Z,59.60
2022-08-11T21:32:21.479Z,60.20
2022-08-11T21:35:12.587Z,60.30
2022-08-11T21:38:03.851Z,60.80
2022-08-11T21:41:00.166Z,60.60
2022-08-11T21:43:51.690Z,60.80
2022-08-11T21:46:42.433Z,60.80
2022-08-11T21:49:33.921Z,61.10
2022-08-11T21:52:24.738Z,60.90
2022-08-11T21:55:15.467Z,61.10
2022-08-11T21:58:06.034Z,61.30
2022-08-11T22:00:56.298Z,60.60
2022-08-11T22:03:49.672Z,59.90
2022-08-11T22:06:40.981Z,58.40
2022-08-11T22:09:31.323Z,57.20
2022-08-11T22:12:34.375Z,56.80
2022-08-11T22:15:27.254Z,57.90
2022-08-11T22:18:19.114Z,57.90
2022-08-11T22:21:09.183Z,57.90
2022-08-11T22:24:05.359Z,58.00
2022-08-11T22:26:57.848Z,58.40
2022-08-11T22:29:51.155Z,58.50
2022-08-11T22:32:41.578Z,58.60
2022-08-11T22:35:31.586Z,59.20
2022-08-11T22:38:22.137Z,59.60
2022-08-11T22:41:12.132Z,60.20
2022-08-11T22:44:01.607Z,60.90
2022-08-11T22:46:53.136Z,62.00
2022-08-11T22:49:57.672Z,62.30
2022-08-11T22:52:49.347Z,61.50
2022-08-11T22:55:42.686Z,60.10
2022-08-11T22:58:34.181Z,60.70
2022-08-11T23:01:24.615Z,61.50
2022-08-11T23:04:15.052Z,62.80
2022-08-11T23:07:06.216Z,63.60
2022-08-11T23:09:57.456Z,63.80
2022-08-11T23:12:47.574Z,64.20
2022-08-11T23:15:39.230Z,65.10
2022-08-11T23:18:32.048Z,65.50
2022-08-11T23:21:22.214Z,65.70
2022-08-11T23:24:12.419Z,66.40
2022-08-11T23:27:02.811Z,66.60
2022-08-11T23:29:54.152Z,67.30
2022-08-11T23:32:46.267Z,67.20
2022-08-11T23:35:51.945Z,67.30
2022-08-11T23:38:46.091Z,66.90
2022-08-11T23:41:36.427Z,67.60
2022-08-11T23:44:27.828Z,67.20
2022-08-11T23:47:22.608Z,67.00
2022-08-11T23:50:12.886Z,67.90
2022-08-11T23:53:07.640Z,67.80
2022-08-11T23:55:57.263Z,67.80
2022-08-11T23:58:47.639Z,67.90
